sensor_id;sensor_type;location;lat;lon;timestamp;P1;durP1;ratioP1;P2;durP2;ratioP2
39020;SDS011;25188;51.958;5.842;2023-05-07T00:00:09;6.95;;;3.88;;
39020;SDS011;25188;51.958;5.842;2023-05-07T00:02:36;8.57;;;4.30;;
39020;SDS011;25188;51.958;5.842;2023-05-07T00:05:02;8.05;;;4.43;;
39020;SDS011;25188;51.958;5.842;2023-05-07T00:07:28;7.95;;;4.35;;
39020;SDS011;25188;51.958;5.842;2023-05-07T00:09:54;7.13;;;4.30;;
39020;SDS011;25188;51.958;5.842;2023-05-07T00:12:20;7.93;;;4.40;;
39020;SDS011;25188;51.958;5.842;2023-05-07T00:14:45;6.25;;;3.78;;
39020;SDS011;25188;51.958;5.842;2023-05-07T00:17:11;6.45;;;4.05;;
39020;SDS011;25188;51.958;5.842;2023-05-07T00:19:37;6.97;;;4.40;;
39020;SDS011;25188;51.958;5.842;2023-05-07T00:22:02;6.85;;;3.80;;
39020;SDS011;25188;51.958;5.842;2023-05-07T00:24:28;8.60;;;4.55;;
39020;SDS011;25188;51.958;5.842;2023-05-07T00:26:53;8.68;;;4.32;;
39020;SDS011;25188;51.958;5.842;2023-05-07T00:29:19;7.60;;;4.53;;
39020;SDS011;25188;51.958;5.842;2023-05-07T00:31:45;9.35;;;5.28;;
39020;SDS011;25188;51.958;5.842;2023-05-07T00:34:10;8.02;;;4.22;;
39020;SDS011;25188;51.958;5.842;2023-05-07T00:36:36;9.73;;;5.10;;
39020;SDS011;25188;51.958;5.842;2023-05-07T00:39:02;7.80;;;4.63;;
39020;SDS011;25188;51.958;5.842;2023-05-07T00:41:28;9.95;;;5.75;;
39020;SDS011;25188;51.958;5.842;2023-05-07T00:43:55;9.77;;;4.85;;
39020;SDS011;25188;51.958;5.842;2023-05-07T00:46:21;8.52;;;5.22;;
39020;SDS011;25188;51.958;5.842;2023-05-07T00:48:49;8.52;;;5.00;;
39020;SDS011;25188;51.958;5.842;2023-05-07T00:51:16;8.88;;;5.15;;
39020;SDS011;25188;51.958;5.842;2023-05-07T00:53:42;10.38;;;5.40;;
39020;SDS011;25188;51.958;5.842;2023-05-07T00:56:08;10.20;;;5.32;;
39020;SDS011;25188;51.958;5.842;2023-05-07T00:58:34;9.00;;;5.47;;
39020;SDS011;25188;51.958;5.842;2023-05-07T01:01:01;8.75;;;5.57;;
39020;SDS011;25188;51.958;5.842;2023-05-07T01:03:27;10.07;;;5.63;;
39020;SDS011;25188;51.958;5.842;2023-05-07T01:05:53;9.20;;;5.47;;
39020;SDS011;25188;51.958;5.842;2023-05-07T01:08:20;8.52;;;5.53;;
39020;SDS011;25188;51.958;5.842;2023-05-07T01:10:47;10.13;;;5.45;;
39020;SDS011;25188;51.958;5.842;2023-05-07T01:13:13;8.45;;;5.55;;
39020;SDS011;25188;51.958;5.842;2023-05-07T01:15:39;9.60;;;6.32;;
39020;SDS011;25188;51.958;5.842;2023-05-07T01:18:06;6.95;;;5.20;;
39020;SDS011;25188;51.958;5.842;2023-05-07T01:20:32;11.23;;;5.47;;
39020;SDS011;25188;51.958;5.842;2023-05-07T01:22:58;11.00;;;6.15;;
39020;SDS011;25188;51.958;5.842;2023-05-07T01:25:26;9.60;;;5.63;;
39020;SDS011;25188;51.958;5.842;2023-05-07T01:27:52;10.65;;;6.47;;
39020;SDS011;25188;51.958;5.842;2023-05-07T01:30:18;13.73;;;6.47;;
39020;SDS011;25188;51.958;5.842;2023-05-07T01:35:27;8.95;;;6.32;;
39020;SDS011;25188;51.958;5.842;2023-05-07T01:38:05;9.82;;;6.13;;
39020;SDS011;25188;51.958;5.842;2023-05-07T01:40:31;12.20;;;7.03;;
39020;SDS011;25188;51.958;5.842;2023-05-07T01:42:59;8.60;;;6.65;;
39020;SDS011;25188;51.958;5.842;2023-05-07T01:45:25;10.32;;;6.57;;
39020;SDS011;25188;51.958;5.842;2023-05-07T01:47:52;11.40;;;7.15;;
39020;SDS011;25188;51.958;5.842;2023-05-07T01:50:18;9.63;;;6.80;;
39020;SDS011;25188;51.958;5.842;2023-05-07T01:52:45;11.73;;;7.20;;
39020;SDS011;25188;51.958;5.842;2023-05-07T01:55:11;12.50;;;7.07;;
39020;SDS011;25188;51.958;5.842;2023-05-07T01:57:37;11.63;;;6.82;;
39020;SDS011;25188;51.958;5.842;2023-05-07T02:00:03;10.80;;;7.07;;
39020;SDS011;25188;51.958;5.842;2023-05-07T02:02:33;11.48;;;6.50;;
39020;SDS011;25188;51.958;5.842;2023-05-07T02:04:59;10.30;;;7.22;;
39020;SDS011;25188;51.958;5.842;2023-05-07T02:07:26;10.18;;;6.47;;
39020;SDS011;25188;51.958;5.842;2023-05-07T02:09:51;9.65;;;7.10;;
39020;SDS011;25188;51.958;5.842;2023-05-07T02:12:17;9.25;;;6.88;;
39020;SDS011;25188;51.958;5.842;2023-05-07T02:14:42;11.48;;;7.53;;
39020;SDS011;25188;51.958;5.842;2023-05-07T02:17:08;11.30;;;7.50;;
39020;SDS011;25188;51.958;5.842;2023-05-07T02:19:34;11.60;;;7.68;;
39020;SDS011;25188;51.958;5.842;2023-05-07T02:22:00;13.07;;;6.78;;
39020;SDS011;25188;51.958;5.842;2023-05-07T02:24:25;9.73;;;7.15;;
39020;SDS011;25188;51.958;5.842;2023-05-07T02:26:51;9.65;;;7.20;;
39020;SDS011;25188;51.958;5.842;2023-05-07T02:29:16;11.52;;;7.75;;
39020;SDS011;25188;51.958;5.842;2023-05-07T02:31:42;10.70;;;7.72;;
39020;SDS011;25188;51.958;5.842;2023-05-07T02:34:08;11.38;;;8.68;;
39020;SDS011;25188;51.958;5.842;2023-05-07T02:36:33;12.45;;;8.50;;
39020;SDS011;25188;51.958;5.842;2023-05-07T02:38:59;12.07;;;8.30;;
39020;SDS011;25188;51.958;5.842;2023-05-07T02:41:25;10.68;;;8.10;;
39020;SDS011;25188;51.958;5.842;2023-05-07T02:43:53;13.52;;;9.02;;
39020;SDS011;25188;51.958;5.842;2023-05-07T02:46:18;11.85;;;8.38;;
39020;SDS011;25188;51.958;5.842;2023-05-07T02:48:44;13.43;;;9.52;;
39020;SDS011;25188;51.958;5.842;2023-05-07T02:51:09;13.68;;;9.88;;
39020;SDS011;25188;51.958;5.842;2023-05-07T02:53:35;12.45;;;9.82;;
39020;SDS011;25188;51.958;5.842;2023-05-07T02:56:01;12.27;;;9.95;;
39020;SDS011;25188;51.958;5.842;2023-05-07T02:58:27;16.27;;;10.35;;
39020;SDS011;25188;51.958;5.842;2023-05-07T03:00:53;12.35;;;9.60;;
39020;SDS011;25188;51.958;5.842;2023-05-07T03:03:21;14.10;;;9.88;;
39020;SDS011;25188;51.958;5.842;2023-05-07T03:05:47;16.83;;;11.27;;
39020;SDS011;25188;51.958;5.842;2023-05-07T03:08:13;14.02;;;11.35;;
39020;SDS011;25188;51.958;5.842;2023-05-07T03:10:38;14.82;;;10.93;;
39020;SDS011;25188;51.958;5.842;2023-05-07T03:13:04;16.05;;;11.68;;
39020;SDS011;25188;51.958;5.842;2023-05-07T03:15:30;15.45;;;10.63;;
39020;SDS011;25188;51.958;5.842;2023-05-07T03:17:56;15.60;;;10.95;;
39020;SDS011;25188;51.958;5.842;2023-05-07T03:20:22;13.65;;;10.45;;
39020;SDS011;25188;51.958;5.842;2023-05-07T03:22:50;14.93;;;11.38;;
39020;SDS011;25188;51.958;5.842;2023-05-07T03:25:16;14.85;;;10.75;;
39020;SDS011;25188;51.958;5.842;2023-05-07T03:27:41;14.70;;;10.73;;
39020;SDS011;25188;51.958;5.842;2023-05-07T03:30:07;12.20;;;9.25;;
39020;SDS011;25188;51.958;5.842;2023-05-07T03:32:33;14.95;;;12.13;;
39020;SDS011;25188;51.958;5.842;2023-05-07T03:35:00;16.27;;;11.45;;
39020;SDS011;25188;51.958;5.842;2023-05-07T03:37:26;13.95;;;10.70;;
39020;SDS011;25188;51.958;5.842;2023-05-07T03:39:51;17.30;;;10.98;;
39020;SDS011;25188;51.958;5.842;2023-05-07T03:42:17;16.30;;;10.63;;
39020;SDS011;25188;51.958;5.842;2023-05-07T03:44:42;16.17;;;10.05;;
39020;SDS011;25188;51.958;5.842;2023-05-07T03:47:08;14.40;;;10.23;;
39020;SDS011;25188;51.958;5.842;2023-05-07T03:49:35;13.77;;;10.82;;
39020;SDS011;25188;51.958;5.842;2023-05-07T03:52:01;17.70;;;10.77;;
39020;SDS011;25188;51.958;5.842;2023-05-07T03:54:26;14.48;;;11.48;;
39020;SDS011;25188;51.958;5.842;2023-05-07T03:56:52;12.57;;;10.25;;
39020;SDS011;25188;51.958;5.842;2023-05-07T03:59:18;14.38;;;10.65;;
39020;SDS011;25188;51.958;5.842;2023-05-07T04:01:43;14.30;;;10.60;;
39020;SDS011;25188;51.958;5.842;2023-05-07T04:04:09;15.45;;;10.93;;
39020;SDS011;25188;51.958;5.842;2023-05-07T04:06:35;15.63;;;11.07;;
39020;SDS011;25188;51.958;5.842;2023-05-07T04:09:00;14.32;;;10.57;;
39020;SDS011;25188;51.958;5.842;2023-05-07T04:11:26;14.20;;;10.27;;
39020;SDS011;25188;51.958;5.842;2023-05-07T04:13:52;14.77;;;10.20;;
39020;SDS011;25188;51.958;5.842;2023-05-07T04:16:17;15.13;;;10.38;;
39020;SDS011;25188;51.958;5.842;2023-05-07T04:18:43;14.55;;;11.25;;
39020;SDS011;25188;51.958;5.842;2023-05-07T04:21:15;16.65;;;10.82;;
39020;SDS011;25188;51.958;5.842;2023-05-07T04:23:42;13.40;;;9.82;;
39020;SDS011;25188;51.958;5.842;2023-05-07T04:26:08;13.60;;;10.80;;
39020;SDS011;25188;51.958;5.842;2023-05-07T04:28:34;12.35;;;10.40;;
39020;SDS011;25188;51.958;5.842;2023-05-07T04:31:01;12.38;;;9.38;;
39020;SDS011;25188;51.958;5.842;2023-05-07T04:33:27;13.40;;;9.55;;
39020;SDS011;25188;51.958;5.842;2023-05-07T04:35:52;14.68;;;10.27;;
39020;SDS011;25188;51.958;5.842;2023-05-07T04:38:18;12.23;;;9.38;;
39020;SDS011;25188;51.958;5.842;2023-05-07T04:40:44;16.70;;;11.05;;
39020;SDS011;25188;51.958;5.842;2023-05-07T04:43:11;15.10;;;10.30;;
39020;SDS011;25188;51.958;5.842;2023-05-07T04:45:36;14.75;;;11.88;;
39020;SDS011;25188;51.958;5.842;2023-05-07T04:48:02;14.93;;;11.77;;
39020;SDS011;25188;51.958;5.842;2023-05-07T04:50:28;16.40;;;11.77;;
39020;SDS011;25188;51.958;5.842;2023-05-07T04:52:55;15.45;;;12.25;;
39020;SDS011;25188;51.958;5.842;2023-05-07T04:55:21;15.00;;;11.43;;
39020;SDS011;25188;51.958;5.842;2023-05-07T04:57:46;16.10;;;11.65;;
39020;SDS011;25188;51.958;5.842;2023-05-07T05:00:12;15.35;;;11.10;;
39020;SDS011;25188;51.958;5.842;2023-05-07T05:02:41;16.10;;;11.43;;
39020;SDS011;25188;51.958;5.842;2023-05-07T05:05:07;14.43;;;11.27;;
39020;SDS011;25188;51.958;5.842;2023-05-07T05:07:33;15.00;;;11.35;;
39020;SDS011;25188;51.958;5.842;2023-05-07T05:09:59;15.25;;;10.77;;
39020;SDS011;25188;51.958;5.842;2023-05-07T05:12:24;13.20;;;10.70;;
39020;SDS011;25188;51.958;5.842;2023-05-07T05:14:50;13.50;;;10.77;;
39020;SDS011;25188;51.958;5.842;2023-05-07T05:17:16;13.60;;;10.40;;
39020;SDS011;25188;51.958;5.842;2023-05-07T05:19:41;12.43;;;10.07;;
39020;SDS011;25188;51.958;5.842;2023-05-07T05:22:07;15.32;;;10.50;;
39020;SDS011;25188;51.958;5.842;2023-05-07T05:24:32;12.80;;;10.32;;
39020;SDS011;25188;51.958;5.842;2023-05-07T05:26:58;11.73;;;9.75;;
39020;SDS011;25188;51.958;5.842;2023-05-07T05:29:27;14.88;;;10.85;;
39020;SDS011;25188;51.958;5.842;2023-05-07T05:31:52;12.23;;;10.52;;
39020;SDS011;25188;51.958;5.842;2023-05-07T05:34:18;13.30;;;9.95;;
39020;SDS011;25188;51.958;5.842;2023-05-07T05:36:47;13.20;;;10.25;;
39020;SDS011;25188;51.958;5.842;2023-05-07T05:39:12;13.55;;;10.40;;
39020;SDS011;25188;51.958;5.842;2023-05-07T05:41:39;14.00;;;10.23;;
39020;SDS011;25188;51.958;5.842;2023-05-07T05:44:04;14.18;;;10.18;;
39020;SDS011;25188;51.958;5.842;2023-05-07T05:46:30;12.00;;;9.88;;
39020;SDS011;25188;51.958;5.842;2023-05-07T05:48:56;12.60;;;10.00;;
39020;SDS011;25188;51.958;5.842;2023-05-07T05:51:22;14.57;;;10.05;;
39020;SDS011;25188;51.958;5.842;2023-05-07T05:53:48;13.27;;;10.13;;
39020;SDS011;25188;51.958;5.842;2023-05-07T05:56:14;14.85;;;10.52;;
39020;SDS011;25188;51.958;5.842;2023-05-07T05:58:40;12.57;;;9.82;;
39020;SDS011;25188;51.958;5.842;2023-05-07T06:01:06;13.98;;;10.00;;
39020;SDS011;25188;51.958;5.842;2023-05-07T06:03:32;14.15;;;9.52;;
39020;SDS011;25188;51.958;5.842;2023-05-07T06:05:58;14.23;;;10.95;;
39020;SDS011;25188;51.958;5.842;2023-05-07T06:08:25;12.32;;;10.07;;
39020;SDS011;25188;51.958;5.842;2023-05-07T06:10:51;11.68;;;9.50;;
39020;SDS011;25188;51.958;5.842;2023-05-07T06:13:16;12.65;;;9.65;;
39020;SDS011;25188;51.958;5.842;2023-05-07T06:15:42;13.30;;;10.10;;
39020;SDS011;25188;51.958;5.842;2023-05-07T06:18:08;12.23;;;9.60;;
39020;SDS011;25188;51.958;5.842;2023-05-07T06:20:33;12.43;;;9.80;;
39020;SDS011;25188;51.958;5.842;2023-05-07T06:22:59;11.30;;;9.52;;
39020;SDS011;25188;51.958;5.842;2023-05-07T06:25:25;13.68;;;9.77;;
39020;SDS011;25188;51.958;5.842;2023-05-07T06:27:50;12.50;;;10.27;;
39020;SDS011;25188;51.958;5.842;2023-05-07T06:30:16;11.65;;;9.75;;
39020;SDS011;25188;51.958;5.842;2023-05-07T06:32:42;13.48;;;9.80;;
39020;SDS011;25188;51.958;5.842;2023-05-07T06:35:07;12.48;;;9.88;;
39020;SDS011;25188;51.958;5.842;2023-05-07T06:37:33;13.13;;;9.60;;
39020;SDS011;25188;51.958;5.842;2023-05-07T06:39:59;12.35;;;9.23;;
39020;SDS011;25188;51.958;5.842;2023-05-07T06:42:24;12.10;;;9.70;;
39020;SDS011;25188;51.958;5.842;2023-05-07T06:44:51;13.05;;;9.43;;
39020;SDS011;25188;51.958;5.842;2023-05-07T06:47:17;10.48;;;8.68;;
39020;SDS011;25188;51.958;5.842;2023-05-07T06:49:43;11.77;;;9.80;;
39020;SDS011;25188;51.958;5.842;2023-05-07T06:52:08;14.32;;;10.32;;
39020;SDS011;25188;51.958;5.842;2023-05-07T06:54:34;11.27;;;8.95;;
39020;SDS011;25188;51.958;5.842;2023-05-07T06:57:00;13.05;;;9.77;;
39020;SDS011;25188;51.958;5.842;2023-05-07T06:59:25;11.40;;;8.82;;
39020;SDS011;25188;51.958;5.842;2023-05-07T07:01:51;11.45;;;9.30;;
39020;SDS011;25188;51.958;5.842;2023-05-07T07:04:16;12.88;;;9.45;;
39020;SDS011;25188;51.958;5.842;2023-05-07T07:06:42;12.18;;;9.07;;
39020;SDS011;25188;51.958;5.842;2023-05-07T07:09:08;10.95;;;8.95;;
39020;SDS011;25188;51.958;5.842;2023-05-07T07:11:33;13.30;;;10.55;;
39020;SDS011;25188;51.958;5.842;2023-05-07T07:13:59;13.02;;;10.13;;
39020;SDS011;25188;51.958;5.842;2023-05-07T07:16:25;13.30;;;10.30;;
39020;SDS011;25188;51.958;5.842;2023-05-07T07:18:51;11.77;;;10.27;;
39020;SDS011;25188;51.958;5.842;2023-05-07T07:21:16;12.70;;;10.32;;
39020;SDS011;25188;51.958;5.842;2023-05-07T07:23:42;13.82;;;10.90;;
39020;SDS011;25188;51.958;5.842;2023-05-07T07:26:08;15.35;;;11.93;;
39020;SDS011;25188;51.958;5.842;2023-05-07T07:28:33;14.00;;;10.82;;
39020;SDS011;25188;51.958;5.842;2023-05-07T07:30:59;14.27;;;11.25;;
39020;SDS011;25188;51.958;5.842;2023-05-07T07:33:25;15.20;;;12.02;;
39020;SDS011;25188;51.958;5.842;2023-05-07T07:35:50;14.80;;;12.43;;
39020;SDS011;25188;51.958;5.842;2023-05-07T07:38:16;13.80;;;11.88;;
39020;SDS011;25188;51.958;5.842;2023-05-07T07:40:41;15.60;;;12.27;;
39020;SDS011;25188;51.958;5.842;2023-05-07T07:43:08;15.65;;;12.25;;
39020;SDS011;25188;51.958;5.842;2023-05-07T07:45:34;13.45;;;11.88;;
39020;SDS011;25188;51.958;5.842;2023-05-07T07:48:00;16.70;;;13.45;;
39020;SDS011;25188;51.958;5.842;2023-05-07T07:50:25;15.27;;;12.45;;
39020;SDS011;25188;51.958;5.842;2023-05-07T07:52:51;18.17;;;12.65;;
39020;SDS011;25188;51.958;5.842;2023-05-07T07:55:19;17.80;;;12.70;;
39020;SDS011;25188;51.958;5.842;2023-05-07T07:57:47;16.02;;;12.25;;
39020;SDS011;25188;51.958;5.842;2023-05-07T08:00:14;14.95;;;11.80;;
39020;SDS011;25188;51.958;5.842;2023-05-07T08:02:40;15.15;;;11.85;;
39020;SDS011;25188;51.958;5.842;2023-05-07T08:05:06;14.65;;;11.30;;
39020;SDS011;25188;51.958;5.842;2023-05-07T08:07:32;16.77;;;11.98;;
39020;SDS011;25188;51.958;5.842;2023-05-07T08:09:58;14.93;;;11.77;;
39020;SDS011;25188;51.958;5.842;2023-05-07T08:12:23;15.50;;;12.05;;
39020;SDS011;25188;51.958;5.842;2023-05-07T08:14:49;17.10;;;13.18;;
39020;SDS011;25188;51.958;5.842;2023-05-07T08:17:15;15.10;;;11.95;;
39020;SDS011;25188;51.958;5.842;2023-05-07T08:19:41;13.60;;;11.35;;
39020;SDS011;25188;51.958;5.842;2023-05-07T08:22:08;13.48;;;10.40;;
39020;SDS011;25188;51.958;5.842;2023-05-07T08:24:34;14.32;;;11.77;;
39020;SDS011;25188;51.958;5.842;2023-05-07T08:27:00;14.40;;;11.95;;
39020;SDS011;25188;51.958;5.842;2023-05-07T08:29:26;15.20;;;11.63;;
39020;SDS011;25188;51.958;5.842;2023-05-07T08:31:51;14.90;;;11.88;;
39020;SDS011;25188;51.958;5.842;2023-05-07T08:34:17;14.48;;;11.07;;
39020;SDS011;25188;51.958;5.842;2023-05-07T08:36:43;15.35;;;11.40;;
39020;SDS011;25188;51.958;5.842;2023-05-07T08:39:11;12.95;;;10.05;;
39020;SDS011;25188;51.958;5.842;2023-05-07T08:41:37;14.70;;;11.85;;
39020;SDS011;25188;51.958;5.842;2023-05-07T08:44:03;13.50;;;10.80;;
39020;SDS011;25188;51.958;5.842;2023-05-07T08:46:34;12.63;;;10.50;;
39020;SDS011;25188;51.958;5.842;2023-05-07T08:48:59;14.30;;;10.88;;
39020;SDS011;25188;51.958;5.842;2023-05-07T08:51:25;14.18;;;11.55;;
39020;SDS011;25188;51.958;5.842;2023-05-07T08:53:52;14.68;;;11.82;;
39020;SDS011;25188;51.958;5.842;2023-05-07T08:56:17;12.18;;;10.57;;
39020;SDS011;25188;51.958;5.842;2023-05-07T08:58:45;13.48;;;11.18;;
39020;SDS011;25188;51.958;5.842;2023-05-07T09:01:15;13.88;;;11.43;;
39020;SDS011;25188;51.958;5.842;2023-05-07T09:03:42;13.98;;;11.70;;
39020;SDS011;25188;51.958;5.842;2023-05-07T09:06:10;14.65;;;10.93;;
39020;SDS011;25188;51.958;5.842;2023-05-07T09:08:36;14.95;;;10.73;;
39020;SDS011;25188;51.958;5.842;2023-05-07T09:11:02;12.63;;;9.73;;
39020;SDS011;25188;51.958;5.842;2023-05-07T09:13:28;14.23;;;10.27;;
39020;SDS011;25188;51.958;5.842;2023-05-07T09:15:54;13.82;;;10.10;;
39020;SDS011;25188;51.958;5.842;2023-05-07T09:18:20;13.82;;;10.45;;
39020;SDS011;25188;51.958;5.842;2023-05-07T09:20:46;12.30;;;10.13;;
39020;SDS011;25188;51.958;5.842;2023-05-07T09:23:12;12.10;;;9.57;;
39020;SDS011;25188;51.958;5.842;2023-05-07T09:25:44;13.65;;;10.40;;
39020;SDS011;25188;51.958;5.842;2023-05-07T09:28:10;15.50;;;10.13;;
39020;SDS011;25188;51.958;5.842;2023-05-07T09:30:36;14.15;;;8.85;;
39020;SDS011;25188;51.958;5.842;2023-05-07T09:33:02;13.77;;;9.30;;
39020;SDS011;25188;51.958;5.842;2023-05-07T09:35:29;14.73;;;9.38;;
39020;SDS011;25188;51.958;5.842;2023-05-07T09:37:59;12.60;;;9.30;;
39020;SDS011;25188;51.958;5.842;2023-05-07T09:40:27;15.07;;;9.00;;
39020;SDS011;25188;51.958;5.842;2023-05-07T09:42:54;11.75;;;8.90;;
39020;SDS011;25188;51.958;5.842;2023-05-07T09:45:26;10.48;;;8.50;;
39020;SDS011;25188;51.958;5.842;2023-05-07T09:47:56;10.43;;;8.40;;
39020;SDS011;25188;51.958;5.842;2023-05-07T09:50:30;11.23;;;8.32;;
39020;SDS011;25188;51.958;5.842;2023-05-07T09:53:07;9.63;;;7.35;;
39020;SDS011;25188;51.958;5.842;2023-05-07T09:55:35;11.77;;;7.60;;
39020;SDS011;25188;51.958;5.842;2023-05-07T09:58:02;10.90;;;7.63;;
39020;SDS011;25188;51.958;5.842;2023-05-07T10:00:31;8.88;;;7.05;;
39020;SDS011;25188;51.958;5.842;2023-05-07T10:02:57;10.70;;;7.88;;
39020;SDS011;25188;51.958;5.842;2023-05-07T10:05:25;11.40;;;8.07;;
39020;SDS011;25188;51.958;5.842;2023-05-07T10:07:51;11.88;;;8.40;;
39020;SDS011;25188;51.958;5.842;2023-05-07T10:10:19;15.10;;;7.88;;
39020;SDS011;25188;51.958;5.842;2023-05-07T10:12:45;11.60;;;7.63;;
39020;SDS011;25188;51.958;5.842;2023-05-07T10:15:11;9.57;;;7.68;;
39020;SDS011;25188;51.958;5.842;2023-05-07T10:17:37;10.48;;;7.18;;
39020;SDS011;25188;51.958;5.842;2023-05-07T10:20:05;9.85;;;7.38;;
39020;SDS011;25188;51.958;5.842;2023-05-07T10:22:32;8.57;;;7.10;;
39020;SDS011;25188;51.958;5.842;2023-05-07T10:25:06;13.98;;;7.75;;
39020;SDS011;25188;51.958;5.842;2023-05-07T10:27:39;9.90;;;6.65;;
39020;SDS011;25188;51.958;5.842;2023-05-07T10:30:26;9.43;;;6.70;;
39020;SDS011;25188;51.958;5.842;2023-05-07T10:33:15;7.70;;;6.18;;
39020;SDS011;25188;51.958;5.842;2023-05-07T10:35:44;9.35;;;6.50;;
39020;SDS011;25188;51.958;5.842;2023-05-07T10:38:11;8.95;;;5.88;;
39020;SDS011;25188;51.958;5.842;2023-05-07T10:40:37;7.97;;;5.28;;
39020;SDS011;25188;51.958;5.842;2023-05-07T10:43:04;7.32;;;4.80;;
39020;SDS011;25188;51.958;5.842;2023-05-07T10:45:30;8.80;;;5.03;;
39020;SDS011;25188;51.958;5.842;2023-05-07T10:50:39;6.80;;;5.15;;
39020;SDS011;25188;51.958;5.842;2023-05-07T10:55:45;6.10;;;3.92;;
39020;SDS011;25188;51.958;5.842;2023-05-07T10:58:22;8.07;;;4.32;;
39020;SDS011;25188;51.958;5.842;2023-05-07T11:00:55;5.05;;;3.83;;
39020;SDS011;25188;51.958;5.842;2023-05-07T11:03:27;6.90;;;4.95;;
39020;SDS011;25188;51.958;5.842;2023-05-07T11:09:11;6.95;;;4.90;;
39020;SDS011;25188;51.958;5.842;2023-05-07T11:11:46;7.82;;;5.03;;
39020;SDS011;25188;51.958;5.842;2023-05-07T11:14:13;7.77;;;5.60;;
39020;SDS011;25188;51.958;5.842;2023-05-07T11:17:03;7.35;;;5.05;;
39020;SDS011;25188;51.958;5.842;2023-05-07T11:25:00;6.05;;;4.88;;
39020;SDS011;25188;51.958;5.842;2023-05-07T11:27:31;8.32;;;5.68;;
39020;SDS011;25188;51.958;5.842;2023-05-07T11:29:57;9.38;;;5.90;;
39020;SDS011;25188;51.958;5.842;2023-05-07T11:32:30;7.85;;;5.18;;
39020;SDS011;25188;51.958;5.842;2023-05-07T11:34:57;7.85;;;5.68;;
39020;SDS011;25188;51.958;5.842;2023-05-07T11:37:25;7.00;;;5.38;;
39020;SDS011;25188;51.958;5.842;2023-05-07T11:40:02;9.02;;;6.47;;
39020;SDS011;25188;51.958;5.842;2023-05-07T11:44:57;7.85;;;5.00;;
39020;SDS011;25188;51.958;5.842;2023-05-07T11:47:23;7.80;;;6.00;;
39020;SDS011;25188;51.958;5.842;2023-05-07T11:49:49;8.85;;;5.95;;
39020;SDS011;25188;51.958;5.842;2023-05-07T11:52:17;8.50;;;6.68;;
39020;SDS011;25188;51.958;5.842;2023-05-07T11:54:51;8.15;;;5.70;;
39020;SDS011;25188;51.958;5.842;2023-05-07T11:59:43;8.07;;;5.18;;
39020;SDS011;25188;51.958;5.842;2023-05-07T12:02:09;9.82;;;6.47;;
39020;SDS011;25188;51.958;5.842;2023-05-07T12:04:35;8.85;;;5.72;;
39020;SDS011;25188;51.958;5.842;2023-05-07T12:07:23;8.13;;;5.40;;
39020;SDS011;25188;51.958;5.842;2023-05-07T12:09:51;9.60;;;6.18;;
39020;SDS011;25188;51.958;5.842;2023-05-07T12:12:18;8.10;;;6.35;;
39020;SDS011;25188;51.958;5.842;2023-05-07T12:14:44;9.23;;;6.28;;
39020;SDS011;25188;51.958;5.842;2023-05-07T12:17:11;11.60;;;6.70;;
39020;SDS011;25188;51.958;5.842;2023-05-07T12:19:39;8.38;;;6.00;;
39020;SDS011;25188;51.958;5.842;2023-05-07T12:22:07;8.80;;;6.25;;
39020;SDS011;25188;51.958;5.842;2023-05-07T12:24:43;9.98;;;5.95;;
39020;SDS011;25188;51.958;5.842;2023-05-07T12:27:10;7.90;;;5.63;;
39020;SDS011;25188;51.958;5.842;2023-05-07T12:29:36;8.48;;;6.40;;
39020;SDS011;25188;51.958;5.842;2023-05-07T12:32:04;7.95;;;5.55;;
39020;SDS011;25188;51.958;5.842;2023-05-07T12:34:31;9.30;;;6.88;;
39020;SDS011;25188;51.958;5.842;2023-05-07T12:36:57;8.65;;;6.38;;
39020;SDS011;25188;51.958;5.842;2023-05-07T12:39:26;7.68;;;6.15;;
39020;SDS011;25188;51.958;5.842;2023-05-07T12:41:55;10.32;;;6.88;;
39020;SDS011;25188;51.958;5.842;2023-05-07T12:44:23;7.80;;;5.68;;
39020;SDS011;25188;51.958;5.842;2023-05-07T12:46:50;8.82;;;6.25;;
39020;SDS011;25188;51.958;5.842;2023-05-07T12:49:16;8.00;;;5.90;;
39020;SDS011;25188;51.958;5.842;2023-05-07T12:51:48;8.63;;;5.88;;
39020;SDS011;25188;51.958;5.842;2023-05-07T12:54:29;8.70;;;5.95;;
39020;SDS011;25188;51.958;5.842;2023-05-07T12:57:09;8.02;;;5.72;;
39020;SDS011;25188;51.958;5.842;2023-05-07T12:59:41;7.53;;;5.45;;
39020;SDS011;25188;51.958;5.842;2023-05-07T13:02:10;7.78;;;5.95;;
39020;SDS011;25188;51.958;5.842;2023-05-07T13:04:36;7.95;;;5.28;;
39020;SDS011;25188;51.958;5.842;2023-05-07T13:07:02;7.35;;;5.20;;
39020;SDS011;25188;51.958;5.842;2023-05-07T13:09:28;6.40;;;4.60;;
39020;SDS011;25188;51.958;5.842;2023-05-07T13:11:57;6.47;;;4.70;;
39020;SDS011;25188;51.958;5.842;2023-05-07T13:14:26;8.07;;;5.43;;
39020;SDS011;25188;51.958;5.842;2023-05-07T13:16:51;6.82;;;4.47;;
39020;SDS011;25188;51.958;5.842;2023-05-07T13:19:17;9.57;;;5.22;;
39020;SDS011;25188;51.958;5.842;2023-05-07T13:21:43;7.28;;;4.70;;
39020;SDS011;25188;51.958;5.842;2023-05-07T13:24:08;7.05;;;5.00;;
39020;SDS011;25188;51.958;5.842;2023-05-07T13:26:34;7.15;;;4.53;;
39020;SDS011;25188;51.958;5.842;2023-05-07T13:29:00;6.60;;;4.97;;
39020;SDS011;25188;51.958;5.842;2023-05-07T13:31:26;7.85;;;4.65;;
39020;SDS011;25188;51.958;5.842;2023-05-07T13:33:51;6.97;;;4.78;;
39020;SDS011;25188;51.958;5.842;2023-05-07T13:36:17;6.63;;;4.78;;
39020;SDS011;25188;51.958;5.842;2023-05-07T13:38:43;7.55;;;4.47;;
39020;SDS011;25188;51.958;5.842;2023-05-07T13:41:09;6.75;;;4.25;;
39020;SDS011;25188;51.958;5.842;2023-05-07T13:43:34;5.40;;;4.10;;
39020;SDS011;25188;51.958;5.842;2023-05-07T13:46:00;7.13;;;4.40;;
39020;SDS011;25188;51.958;5.842;2023-05-07T13:48:26;8.73;;;4.00;;
39020;SDS011;25188;51.958;5.842;2023-05-07T13:50:53;5.28;;;3.85;;
39020;SDS011;25188;51.958;5.842;2023-05-07T13:53:18;8.30;;;4.45;;
39020;SDS011;25188;51.958;5.842;2023-05-07T13:55:44;7.82;;;4.88;;
39020;SDS011;25188;51.958;5.842;2023-05-07T13:58:10;7.82;;;4.15;;
39020;SDS011;25188;51.958;5.842;2023-05-07T14:00:36;8.07;;;4.15;;
39020;SDS011;25188;51.958;5.842;2023-05-07T14:03:01;5.25;;;3.65;;
39020;SDS011;25188;51.958;5.842;2023-05-07T14:05:28;7.63;;;3.85;;
39020;SDS011;25188;51.958;5.842;2023-05-07T14:07:54;6.47;;;4.05;;
39020;SDS011;25188;51.958;5.842;2023-05-07T14:10:21;8.50;;;4.07;;
39020;SDS011;25188;51.958;5.842;2023-05-07T14:12:47;7.30;;;4.00;;
39020;SDS011;25188;51.958;5.842;2023-05-07T14:15:13;7.30;;;4.05;;
39020;SDS011;25188;51.958;5.842;2023-05-07T14:17:39;6.63;;;3.95;;
39020;SDS011;25188;51.958;5.842;2023-05-07T14:20:05;6.97;;;4.25;;
39020;SDS011;25188;51.958;5.842;2023-05-07T14:22:31;7.35;;;4.85;;
39020;SDS011;25188;51.958;5.842;2023-05-07T14:24:57;6.90;;;4.68;;
39020;SDS011;25188;51.958;5.842;2023-05-07T14:27:23;8.30;;;4.00;;
39020;SDS011;25188;51.958;5.842;2023-05-07T14:29:48;8.10;;;4.72;;
39020;SDS011;25188;51.958;5.842;2023-05-07T14:32:16;6.18;;;4.20;;
39020;SDS011;25188;51.958;5.842;2023-05-07T14:34:43;7.57;;;4.50;;
39020;SDS011;25188;51.958;5.842;2023-05-07T14:37:11;6.78;;;4.72;;
39020;SDS011;25188;51.958;5.842;2023-05-07T14:39:37;6.20;;;4.18;;
39020;SDS011;25188;51.958;5.842;2023-05-07T14:42:06;8.25;;;4.53;;
39020;SDS011;25188;51.958;5.842;2023-05-07T14:44:33;6.78;;;4.63;;
39020;SDS011;25188;51.958;5.842;2023-05-07T14:47:00;7.50;;;4.72;;
39020;SDS011;25188;51.958;5.842;2023-05-07T14:49:25;7.03;;;4.20;;
39020;SDS011;25188;51.958;5.842;2023-05-07T14:51:51;7.18;;;4.53;;
39020;SDS011;25188;51.958;5.842;2023-05-07T14:54:16;7.57;;;4.78;;